createdAt,value
2017-08-17T00:08:14.000Z,62
2017-08-17T00:25:04.000Z,62
2017-08-17T00:41:53.000Z,62.8
2017-08-17T00:58:44.000Z,62.4
2017-08-17T01:15:33.000Z,62.4
2017-08-17T01:32:22.000Z,62.4
2017-08-17T01:49:11.000Z,62.4
2017-08-17T02:06:02.000Z,62.8
2017-08-17T02:22:51.000Z,62.8
2017-08-17T02:39:40.000Z,62.8
2017-08-17T02:56:29.000Z,62.8
2017-08-17T03:13:18.000Z,63.2
2017-08-17T03:30:08.000Z,63.2
2017-08-17T03:46:57.000Z,63.2
2017-08-17T04:03:46.000Z,63.2
2017-08-17T04:20:35.000Z,63.2
2017-08-17T04:37:24.000Z,63.2
2017-08-17T04:54:14.000Z,63.2
2017-08-17T05:11:03.000Z,63.2
2017-08-17T05:27:52.000Z,63.6
2017-08-17T05:44:41.000Z,63.2
2017-08-17T06:01:32.000Z,62.8
2017-08-17T06:18:22.000Z,62.8
2017-08-17T06:35:12.000Z,62.8
2017-08-17T06:52:02.000Z,63.6
2017-08-17T07:08:51.000Z,64
2017-08-17T07:25:41.000Z,64.4
2017-08-17T07:42:31.000Z,64.4
2017-08-17T07:59:21.000Z,64.8
2017-08-17T08:16:11.000Z,64.4
2017-08-17T08:33:01.000Z,64.8
2017-08-17T08:49:52.000Z,64.8
2017-08-17T09:06:43.000Z,64.8
2017-08-17T09:23:33.000Z,64.4
2017-08-17T09:40:24.000Z,64.4
2017-08-17T09:57:14.000Z,64
2017-08-17T10:14:06.000Z,63.6
2017-08-17T10:30:57.000Z,63.6
2017-08-17T10:47:47.000Z,63.2
2017-08-17T11:04:38.000Z,64
2017-08-17T11:21:29.000Z,64.4
2017-08-17T11:38:21.000Z,64
2017-08-17T11:55:12.000Z,63.2
2017-08-17T12:12:03.000Z,62
2017-08-17T12:28:55.000Z,62
2017-08-17T12:45:46.000Z,62.8
2017-08-17T13:02:37.000Z,62.8
2017-08-17T13:19:30.000Z,63.2
2017-08-17T13:36:21.000Z,64
2017-08-17T13:53:12.000Z,65.2
2017-08-17T14:10:03.000Z,65.6
2017-08-17T14:26:54.000Z,66.8
2017-08-17T14:43:45.000Z,67.2
2017-08-17T15:00:36.000Z,67.2
2017-08-17T15:17:26.000Z,67.2
2017-08-17T15:34:17.000Z,67.6
2017-08-17T15:51:07.000Z,68
2017-08-17T16:07:58.000Z,68
2017-08-17T16:24:48.000Z,68
2017-08-17T16:41:39.000Z,68.4
2017-08-17T16:58:29.000Z,68.4
2017-08-17T17:15:19.000Z,68.4
2017-08-17T17:32:10.000Z,68.4
2017-08-17T17:49:01.000Z,69.6
2017-08-17T18:05:51.000Z,69.2
2017-08-17T18:22:42.000Z,69.2
2017-08-17T18:39:32.000Z,69.6
2017-08-17T18:56:22.000Z,70.4
2017-08-17T19:13:12.000Z,71.2
2017-08-17T19:30:02.000Z,70.8
2017-08-17T19:46:51.000Z,71.2
2017-08-17T20:03:41.000Z,71.2
2017-08-17T20:20:29.000Z,72
2017-08-17T20:37:20.000Z,71.6
2017-08-17T20:54:09.000Z,71.6
2017-08-17T21:10:58.000Z,71.2
2017-08-17T21:27:47.000Z,71.2
2017-08-17T21:44:36.000Z,71.2
2017-08-17T22:01:26.000Z,71.2
2017-08-17T22:18:15.000Z,71.2
2017-08-17T22:35:04.000Z,70.8
2017-08-17T22:51:55.000Z,70.8
2017-08-17T23:08:43.000Z,70.8
2017-08-17T23:25:32.000Z,71.2
2017-08-17T23:42:22.000Z,70.8
2017-08-17T23:59:11.000Z,71.2
